Time;durP1;ratioP1;P1;durP2;ratioP2;P2;SDS_P1;SDS_P2;PMS_P1;PMS_P2;Temp;Humidity;BMP_temperature;BMP_pressure;BME280_temperature;BME280_humidity;BME280_pressure;Samples;Min_cycle;Max_cycle;Signal;HPM_P1;HPM_P2
2023/01/10 00:00:01;;;;;;;5.18;3.80;;;6.40;99.90;;;;;;5045622;28;20516;-70
2023/01/10 00:02:27;;;;;;;7.43;4.10;;;6.40;99.90;;;;;;5045577;28;20421;-70
2023/01/10 00:04:54;;;;;;;4.70;3.60;;;6.40;99.90;;;;;;5048130;28;20417;-69
2023/01/10 00:07:21;;;;;;;5.68;3.40;;;6.40;99.90;;;;;;5049253;28;20421;-70
2023/01/10 00:09:47;;;;;;;4.65;3.42;;;6.40;99.90;;;;;;5045815;28;20508;-70
2023/01/10 00:15:02;;;;;;;6.95;4.18;;;6.40;99.90;;;;;;5031724;28;20412;-70
2023/01/10 00:17:29;;;;;;;5.13;3.60;;;6.40;99.90;;;;;;5048525;28;20417;-70
2023/01/10 00:19:55;;;;;;;4.93;3.53;;;6.40;99.90;;;;;;5049058;28;20440;-69
2023/01/10 00:22:23;;;;;;;5.72;3.40;;;6.30;99.90;;;;;;5048310;28;20885;-70
2023/01/10 00:24:51;;;;;;;6.13;3.40;;;6.30;99.90;;;;;;5046981;28;20439;-71
2023/01/10 00:27:21;;;;;;;6.00;3.33;;;6.30;99.90;;;;;;5046171;28;20433;-71
2023/01/10 00:29:49;;;;;;;5.88;2.80;;;6.30;99.90;;;;;;5049237;28;20490;-69
2023/01/10 00:32:18;;;;;;;5.03;3.00;;;6.30;99.90;;;;;;5047824;28;20432;-70
2023/01/10 00:34:45;;;;;;;5.55;3.00;;;6.30;99.80;;;;;;5052568;28;20422;-71
2023/01/10 00:37:12;;;;;;;5.82;2.50;;;6.30;99.70;;;;;;5050605;28;20429;-69
2023/01/10 00:39:38;;;;;;;6.10;2.80;;;6.40;99.50;;;;;;5049907;28;20444;-71
2023/01/10 00:44:50;;;;;;;5.13;2.22;;;6.40;99.20;;;;;;5049988;28;20463;-70
2023/01/10 00:47:18;;;;;;;5.05;2.70;;;6.40;98.90;;;;;;5048631;28;20424;-71
2023/01/10 00:49:45;;;;;;;6.22;2.80;;;6.40;98.70;;;;;;5048963;28;20436;-70
2023/01/10 00:52:11;;;;;;;6.17;2.93;;;6.40;98.70;;;;;;5046560;28;20445;-70
2023/01/10 00:54:38;;;;;;;5.15;2.40;;;6.40;98.60;;;;;;5047990;28;20409;-70
2023/01/10 00:57:05;;;;;;;6.47;2.40;;;6.40;98.60;;;;;;5046437;28;20528;-70
2023/01/10 00:59:32;;;;;;;4.40;2.22;;;6.40;98.60;;;;;;5047928;28;20432;-70
2023/01/10 01:01:59;;;;;;;8.68;3.83;;;6.50;98.30;;;;;;5047350;28;20456;-70
2023/01/10 01:04:27;;;;;;;4.07;2.40;;;6.40;98.30;;;;;;5046840;28;20417;-70
2023/01/10 01:06:53;;;;;;;6.60;2.73;;;6.40;98.00;;;;;;5046590;28;20474;-70
2023/01/10 01:09:20;;;;;;;6.35;2.40;;;6.40;97.90;;;;;;5054718;28;20447;-71
2023/01/10 01:11:48;;;;;;;4.78;2.50;;;6.40;97.80;;;;;;5056502;28;20438;-71
2023/01/10 01:14:14;;;;;;;4.55;2.30;;;6.40;98.00;;;;;;5063762;28;20455;-68
2023/01/10 01:16:41;;;;;;;8.77;2.50;;;6.40;97.70;;;;;;5058395;28;20437;-69
2023/01/10 01:19:08;;;;;;;6.50;2.88;;;6.40;97.80;;;;;;5050297;28;20425;-71
2023/01/10 01:21:36;;;;;;;4.70;2.85;;;6.40;97.90;;;;;;5047968;28;20433;-71
2023/01/10 01:24:03;;;;;;;6.35;2.65;;;6.40;97.70;;;;;;5048093;28;20908;-69
2023/01/10 01:26:30;;;;;;;5.25;2.60;;;6.40;97.70;;;;;;5047971;28;20440;-69
2023/01/10 01:28:56;;;;;;;6.65;2.90;;;6.40;97.60;;;;;;5048679;28;20421;-68
2023/01/10 01:31:23;;;;;;;6.07;3.10;;;6.40;97.60;;;;;;5046502;28;20429;-69
2023/01/10 01:33:50;;;;;;;6.40;2.90;;;6.40;97.40;;;;;;5056716;28;20428;-69
2023/01/10 01:36:17;;;;;;;6.07;2.75;;;6.40;97.80;;;;;;5049051;28;20468;-69
2023/01/10 01:38:45;;;;;;;5.70;2.75;;;6.40;97.50;;;;;;5047454;28;20421;-69
2023/01/10 01:44:02;;;;;;;8.15;2.92;;;6.30;97.50;;;;;;5054132;28;20799;-70
2023/01/10 01:46:29;;;;;;;5.95;2.67;;;6.30;97.40;;;;;;5058359;28;20430;-69
2023/01/10 01:48:56;;;;;;;6.47;2.77;;;6.30;97.50;;;;;;5060180;28;20859;-72
2023/01/10 01:51:28;;;;;;;6.28;2.67;;;6.30;97.60;;;;;;5059541;28;20439;-69
2023/01/10 01:53:59;;;;;;;5.28;2.90;;;6.20;97.80;;;;;;5061311;28;20432;-69
2023/01/10 01:56:31;;;;;;;6.90;2.70;;;6.20;98.00;;;;;;5059768;28;20420;-69
2023/01/10 01:59:01;;;;;;;7.00;3.10;;;6.20;97.90;;;;;;5058488;28;20820;-73
2023/01/10 02:01:30;;;;;;;7.43;2.87;;;6.20;97.90;;;;;;5059564;28;20496;-69
2023/01/10 02:04:01;;;;;;;7.30;2.70;;;6.30;98.00;;;;;;5060717;28;20410;-69
2023/01/10 02:06:28;;;;;;;5.70;2.55;;;6.30;97.60;;;;;;5055547;28;20433;-68
2023/01/10 02:09:03;;;;;;;6.10;2.97;;;6.30;97.30;;;;;;5053503;28;20444;-70
2023/01/10 02:11:30;;;;;;;7.10;3.00;;;6.30;97.40;;;;;;5049156;28;20425;-70
2023/01/10 02:13:59;;;;;;;6.20;2.58;;;6.30;97.50;;;;;;5048494;28;20429;-70
2023/01/10 02:16:25;;;;;;;6.03;2.50;;;6.30;97.60;;;;;;5048008;28;20429;-71
2023/01/10 02:18:52;;;;;;;9.15;2.60;;;6.30;97.40;;;;;;5048062;28;20528;-70
2023/01/10 02:21:39;;;;;;;5.80;2.67;;;6.30;97.30;;;;;;5046546;28;20429;-70
2023/01/10 02:24:37;;;;;;;6.22;2.80;;;6.30;97.30;;;;;;5047051;28;20454;-69
2023/01/10 02:27:23;;;;;;;7.38;2.90;;;6.30;97.30;;;;;;5045828;28;20443;-69
2023/01/10 02:30:26;;;;;;;5.22;2.50;;;6.30;97.30;;;;;;5047448;28;20431;-70
2023/01/10 02:33:00;;;;;;;7.40;2.90;;;6.20;97.40;;;;;;5046660;28;20437;-70
2023/01/10 02:36:03;;;;;;;7.85;2.60;;;6.10;97.20;;;;;;5049249;28;20421;-71
2023/01/10 02:38:45;;;;;;;6.70;3.00;;;6.10;97.50;;;;;;5047550;28;20433;-70
2023/01/10 02:41:21;;;;;;;5.43;2.50;;;6.00;97.60;;;;;;5047638;28;20424;-70
2023/01/10 02:43:53;;;;;;;10.25;3.10;;;6.10;97.60;;;;;;5047200;28;20417;-70
2023/01/10 02:46:26;;;;;;;6.40;2.90;;;6.10;97.10;;;;;;5046783;28;20421;-70
2023/01/10 02:48:55;;;;;;;6.85;2.50;;;6.10;97.20;;;;;;5047831;28;20417;-69
2023/01/10 02:51:23;;;;;;;9.47;2.63;;;6.20;96.70;;;;;;5045790;28;20421;-69
2023/01/10 02:53:55;;;;;;;9.00;3.80;;;6.20;96.70;;;;;;5034259;28;20421;-70
2023/01/10 02:56:52;;;;;;;7.60;3.40;;;6.20;96.60;;;;;;5046328;28;20437;-70
2023/01/10 02:59:42;;;;;;;6.50;2.70;;;6.20;96.60;;;;;;5026654;28;20415;-70
2023/01/10 03:02:21;;;;;;;8.07;3.85;;;6.20;96.60;;;;;;5036294;28;20429;-69
2023/01/10 03:04:55;;;;;;;7.05;2.72;;;6.20;96.40;;;;;;5047056;28;20463;-68
2023/01/10 03:07:29;;;;;;;7.10;3.30;;;6.20;96.40;;;;;;5044878;28;20436;-69
2023/01/10 03:10:01;;;;;;;8.65;2.90;;;6.30;96.30;;;;;;5046389;28;20429;-70
2023/01/10 03:12:33;;;;;;;8.13;3.30;;;6.20;96.10;;;;;;5045062;28;20464;-70
2023/01/10 03:15:02;;;;;;;9.05;3.40;;;6.30;96.00;;;;;;5046832;28;20414;-69
2023/01/10 03:17:30;;;;;;;6.70;3.00;;;6.30;96.10;;;;;;5046450;28;20475;-69
2023/01/10 03:20:02;;;;;;;8.77;3.20;;;6.20;96.30;;;;;;5047893;28;20776;-69
2023/01/10 03:22:31;;;;;;;5.95;2.70;;;6.10;96.80;;;;;;5045090;28;20801;-70
2023/01/10 03:25:00;;;;;;;5.93;2.88;;;6.00;97.00;;;;;;5045942;28;20933;-70
2023/01/10 03:27:38;;;;;;;7.30;3.40;;;5.90;97.30;;;;;;5045455;28;20431;-70
2023/01/10 03:30:15;;;;;;;7.78;2.90;;;5.80;97.80;;;;;;5046314;28;20422;-72
2023/01/10 03:32:42;;;;;;;7.72;3.20;;;5.80;98.20;;;;;;5046237;28;20424;-69
2023/01/10 03:35:13;;;;;;;8.40;2.70;;;5.70;98.10;;;;;;5045079;28;20437;-70
2023/01/10 03:37:50;;;;;;;7.78;3.40;;;5.80;98.20;;;;;;5046472;28;20429;-69
2023/01/10 03:40:23;;;;;;;8.67;2.97;;;5.80;97.90;;;;;;5048668;28;20520;-70
2023/01/10 03:45:48;;;;;;;7.57;2.97;;;5.80;97.70;;;;;;5065398;28;20462;-69
2023/01/10 03:48:18;;;;;;;8.32;3.13;;;5.80;97.60;;;;;;5065601;28;20720;-69
2023/01/10 03:50:47;;;;;;;9.65;3.63;;;5.90;97.30;;;;;;5063663;28;20436;-69
2023/01/10 03:53:15;;;;;;;7.70;3.07;;;5.90;97.20;;;;;;5057273;28;20471;-69
2023/01/10 03:55:44;;;;;;;8.80;2.97;;;6.00;97.10;;;;;;5052380;28;20420;-69
2023/01/10 03:58:10;;;;;;;6.53;2.72;;;6.00;97.10;;;;;;5054268;28;20450;-69
2023/01/10 04:00:38;;;;;;;5.88;2.78;;;6.00;97.00;;;;;;5054136;28;20433;-70
2023/01/10 04:03:05;;;;;;;5.75;2.80;;;6.00;97.00;;;;;;5053267;28;20424;-70
2023/01/10 04:05:31;;;;;;;9.38;3.55;;;5.90;96.80;;;;;;5048828;28;20443;-70
2023/01/10 04:08:00;;;;;;;8.83;3.23;;;5.80;97.30;;;;;;5049735;28;20409;-69
2023/01/10 04:10:28;;;;;;;6.82;3.10;;;5.80;97.30;;;;;;5049587;28;20440;-69
2023/01/10 04:12:55;;;;;;;7.68;3.30;;;5.80;97.70;;;;;;5049646;28;20501;-69
2023/01/10 04:15:22;;;;;;;7.63;3.33;;;5.80;97.80;;;;;;5050192;28;20417;-70
2023/01/10 04:17:48;;;;;;;6.30;3.10;;;5.80;97.30;;;;;;5050286;28;20440;-69
2023/01/10 04:20:16;;;;;;;8.02;3.70;;;5.90;97.10;;;;;;5048706;28;20903;-71
2023/01/10 04:22:44;;;;;;;8.55;3.20;;;5.90;96.90;;;;;;5050597;28;20494;-69
2023/01/10 04:25:12;;;;;;;7.57;3.20;;;5.90;97.10;;;;;;5053011;28;20740;-68
2023/01/10 04:27:39;;;;;;;6.22;2.90;;;5.80;97.10;;;;;;5049979;28;20432;-69
2023/01/10 04:30:07;;;;;;;6.80;3.00;;;5.70;97.40;;;;;;5049587;28;20445;-69
2023/01/10 04:32:34;;;;;;;9.73;3.38;;;5.60;97.80;;;;;;5046789;28;20414;-71
2023/01/10 04:35:00;;;;;;;7.25;2.80;;;5.50;98.10;;;;;;5049009;28;20417;-70
2023/01/10 04:37:27;;;;;;;7.82;2.85;;;5.40;98.50;;;;;;5049365;28;20468;-68
2023/01/10 04:39:54;;;;;;;9.10;3.30;;;5.40;98.60;;;;;;5049727;28;20436;-71
2023/01/10 04:42:22;;;;;;;9.07;3.40;;;5.40;98.70;;;;;;5048142;28;20879;-69
2023/01/10 04:44:49;;;;;;;8.40;3.30;;;5.40;98.70;;;;;;5049396;28;20548;-70
2023/01/10 04:47:16;;;;;;;10.10;3.75;;;5.50;98.70;;;;;;5043358;28;20460;-69
2023/01/10 04:49:43;;;;;;;10.50;3.30;;;5.60;98.20;;;;;;5048609;28;20438;-70
2023/01/10 04:52:10;;;;;;;7.53;3.13;;;5.70;98.00;;;;;;5047635;28;20490;-69
2023/01/10 04:54:37;;;;;;;10.23;3.50;;;5.70;97.40;;;;;;5049727;28;20432;-71
2023/01/10 04:57:05;;;;;;;8.32;3.60;;;5.70;97.30;;;;;;5049669;28;20425;-68
2023/01/10 04:59:33;;;;;;;8.50;3.60;;;5.80;97.00;;;;;;5048019;28;20429;-70
2023/01/10 05:02:00;;;;;;;9.93;3.20;;;5.80;97.00;;;;;;5049408;28;20923;-70
2023/01/10 05:04:26;;;;;;;8.95;3.80;;;5.80;96.90;;;;;;5047433;28;20437;-68
2023/01/10 05:06:53;;;;;;;10.82;3.70;;;5.80;97.00;;;;;;5050558;28;20416;-68
2023/01/10 05:09:20;;;;;;;6.85;3.10;;;5.80;96.90;;;;;;5057551;28;20436;-70
2023/01/10 05:11:46;;;;;;;9.18;3.88;;;5.80;96.70;;;;;;5063481;28;20429;-69
2023/01/10 05:14:13;;;;;;;7.50;3.08;;;5.90;96.80;;;;;;5048440;28;20444;-69
2023/01/10 05:16:41;;;;;;;7.30;3.35;;;5.90;96.50;;;;;;5060069;28;20433;-71
2023/01/10 05:19:08;;;;;;;8.27;3.03;;;5.90;96.40;;;;;;5058687;28;20608;-69
2023/01/10 05:21:35;;;;;;;9.40;3.13;;;5.90;96.30;;;;;;5060075;28;20429;-69
2023/01/10 05:24:01;;;;;;;9.63;3.20;;;5.90;96.10;;;;;;5060840;28;20883;-70
2023/01/10 05:26:28;;;;;;;9.85;3.50;;;5.90;96.20;;;;;;5063025;28;20420;-69
2023/01/10 05:28:55;;;;;;;7.40;3.53;;;5.90;96.00;;;;;;5059300;28;20421;-68
2023/01/10 05:31:22;;;;;;;8.95;3.50;;;6.00;96.00;;;;;;5049179;28;20926;-71
2023/01/10 05:33:51;;;;;;;7.55;3.10;;;5.90;95.70;;;;;;5054447;28;20450;-70
2023/01/10 05:36:19;;;;;;;8.15;3.05;;;5.90;95.80;;;;;;5059505;28;20433;-69
2023/01/10 05:38:46;;;;;;;12.45;3.00;;;5.90;96.00;;;;;;5055281;28;20430;-69
2023/01/10 05:41:12;;;;;;;11.47;3.40;;;5.80;96.40;;;;;;5058647;28;20417;-67
2023/01/10 05:43:39;;;;;;;8.93;3.28;;;5.70;96.70;;;;;;5049468;28;20421;-70
2023/01/10 05:46:06;;;;;;;8.77;3.20;;;5.70;96.70;;;;;;5054633;28;20923;-71
2023/01/10 05:48:33;;;;;;;10.18;3.50;;;5.70;96.50;;;;;;5048935;28;20440;-70
2023/01/10 05:51:01;;;;;;;9.00;3.40;;;5.70;96.20;;;;;;5050850;28;20436;-70
2023/01/10 05:53:28;;;;;;;9.90;3.50;;;5.80;96.40;;;;;;5047661;28;20909;-71
2023/01/10 05:55:56;;;;;;;9.43;3.97;;;5.80;96.40;;;;;;5047539;28;20432;-71
2023/01/10 05:58:23;;;;;;;8.30;3.60;;;5.70;96.40;;;;;;5048449;28;20935;-70
2023/01/10 06:00:50;;;;;;;11.43;4.30;;;5.60;96.60;;;;;;5055543;28;20441;-71
2023/01/10 06:03:17;;;;;;;10.48;3.72;;;5.50;97.00;;;;;;5054189;28;20456;-71
2023/01/10 06:05:44;;;;;;;10.95;3.92;;;5.40;97.70;;;;;;5067202;28;20538;-71
2023/01/10 06:08:12;;;;;;;10.90;3.47;;;5.30;97.80;;;;;;5052359;28;20433;-70
2023/01/10 06:10:39;;;;;;;9.88;3.50;;;5.30;97.90;;;;;;5046105;28;20465;-70
2023/01/10 06:13:08;;;;;;;9.70;3.93;;;5.30;98.10;;;;;;5045096;28;20440;-71
2023/01/10 06:15:35;;;;;;;11.75;4.10;;;5.30;98.20;;;;;;5043034;28;20444;-70
2023/01/10 06:18:02;;;;;;;12.13;3.90;;;5.30;98.10;;;;;;5053203;28;20427;-69
2023/01/10 06:20:29;;;;;;;8.20;3.90;;;5.40;97.70;;;;;;5052990;28;20472;-70
2023/01/10 06:22:57;;;;;;;13.10;5.03;;;5.50;97.80;;;;;;5053795;28;20417;-73
2023/01/10 06:25:26;;;;;;;13.40;4.53;;;5.60;97.30;;;;;;5044479;28;20519;-71
2023/01/10 06:27:52;;;;;;;9.40;3.70;;;5.70;97.10;;;;;;5044500;28;20441;-70
2023/01/10 06:30:19;;;;;;;9.95;3.97;;;5.70;96.70;;;;;;5046036;28;20424;-72
2023/01/10 06:32:46;;;;;;;11.88;3.80;;;5.70;96.50;;;;;;5044283;28;20475;-71
2023/01/10 06:35:13;;;;;;;11.30;4.43;;;5.70;96.50;;;;;;5055120;28;20443;-72
2023/01/10 06:37:40;;;;;;;13.52;4.97;;;5.60;96.80;;;;;;5046504;28;20440;-71
2023/01/10 06:40:08;;;;;;;11.32;4.65;;;5.60;97.10;;;;;;5057307;28;20441;-68
2023/01/10 06:42:36;;;;;;;12.50;5.40;;;5.50;97.20;;;;;;5045227;28;20432;-71
2023/01/10 06:45:03;;;;;;;15.55;6.00;;;5.50;98.50;;;;;;5043424;28;20854;-70
2023/01/10 06:47:30;;;;;;;11.68;4.68;;;5.60;98.30;;;;;;5047813;28;20431;-70
2023/01/10 06:49:57;;;;;;;11.68;4.22;;;5.70;98.00;;;;;;5043925;28;20455;-69
2023/01/10 06:52:23;;;;;;;9.75;5.00;;;5.70;97.60;;;;;;5038113;28;20451;-71
2023/01/10 06:54:51;;;;;;;11.82;5.57;;;5.60;97.00;;;;;;5042050;28;20448;-70
2023/01/10 06:57:18;;;;;;;11.57;4.70;;;5.50;97.10;;;;;;5045496;28;20428;-70
2023/01/10 06:59:46;;;;;;;9.55;4.70;;;5.40;97.30;;;;;;5045711;28;20436;-71
2023/01/10 07:02:13;;;;;;;10.02;4.70;;;5.20;98.00;;;;;;5044254;28;20520;-70
2023/01/10 07:04:40;;;;;;;8.85;4.43;;;5.10;98.50;;;;;;5061581;28;20439;-69
2023/01/10 07:07:07;;;;;;;10.57;4.93;;;5.10;98.50;;;;;;5047500;28;20421;-69
2023/01/10 07:09:34;;;;;;;12.57;5.95;;;5.10;98.80;;;;;;5046899;28;20428;-71
2023/01/10 07:12:00;;;;;;;13.23;5.63;;;5.10;98.80;;;;;;5047125;28;20416;-68
2023/01/10 07:14:27;;;;;;;11.65;5.30;;;5.00;99.00;;;;;;5046402;28;20898;-71
2023/01/10 07:16:55;;;;;;;10.80;4.82;;;5.00;99.20;;;;;;5047968;28;20417;-69
2023/01/10 07:19:22;;;;;;;11.80;5.50;;;4.90;99.20;;;;;;5061424;28;20768;-69
2023/01/10 07:21:49;;;;;;;10.90;5.10;;;4.90;99.70;;;;;;5047694;28;20455;-68
2023/01/10 07:24:15;;;;;;;11.23;6.20;;;4.90;99.80;;;;;;5047160;28;20421;-69
2023/01/10 07:26:42;;;;;;;15.68;5.53;;;4.90;99.90;;;;;;5048324;28;20413;-69
2023/01/10 07:29:09;;;;;;;10.80;5.68;;;4.90;99.90;;;;;;5046067;28;20439;-68
2023/01/10 07:31:36;;;;;;;9.38;4.72;;;5.00;99.90;;;;;;5059784;28;20421;-69
2023/01/10 07:34:04;;;;;;;10.13;5.45;;;5.10;99.80;;;;;;5056318;28;20409;-69
2023/01/10 07:36:31;;;;;;;9.60;5.20;;;5.20;99.60;;;;;;5066607;28;20468;-68
2023/01/10 07:38:57;;;;;;;10.77;5.30;;;5.30;99.20;;;;;;5073086;28;20945;-69
2023/01/10 07:41:24;;;;;;;9.95;5.10;;;5.40;98.90;;;;;;5055392;28;20433;-71
2023/01/10 07:43:51;;;;;;;14.15;5.30;;;5.50;98.40;;;;;;5050955;28;20428;-71
2023/01/10 07:46:17;;;;;;;11.98;5.60;;;5.60;97.80;;;;;;5061798;28;20485;-74
2023/01/10 07:48:45;;;;;;;10.70;5.05;;;5.60;97.70;;;;;;5072748;28;20507;-75
2023/01/10 07:51:13;;;;;;;12.40;5.13;;;5.70;97.70;;;;;;5067387;28;20500;-71
2023/01/10 07:53:40;;;;;;;11.55;4.70;;;5.70;97.10;;;;;;5061163;28;20430;-70
2023/01/10 07:56:07;;;;;;;12.07;5.80;;;5.70;96.90;;;;;;5067946;28;20584;-69
2023/01/10 07:58:34;;;;;;;15.20;5.63;;;5.70;96.90;;;;;;5060813;28;20612;-70
2023/01/10 08:01:03;;;;;;;12.52;5.10;;;5.60;96.90;;;;;;5060307;28;20413;-71
2023/01/10 08:03:31;;;;;;;11.45;4.57;;;5.50;97.10;;;;;;5057202;28;20963;-68
2023/01/10 08:05:59;;;;;;;9.80;4.78;;;5.40;97.50;;;;;;5057379;28;20425;-71
2023/01/10 08:08:28;;;;;;;12.65;5.22;;;5.30;97.90;;;;;;5045957;28;20451;-71
2023/01/10 08:10:55;;;;;;;9.20;5.20;;;5.20;98.30;;;;;;5057988;28;20506;-70
2023/01/10 08:13:23;;;;;;;15.25;7.30;;;5.20;98.70;;;;;;5045195;28;20490;-70
2023/01/10 08:15:51;;;;;;;13.35;4.80;;;5.10;98.90;;;;;;5049680;28;20417;-70
2023/01/10 08:18:18;;;;;;;12.93;5.63;;;5.10;99.10;;;;;;5052431;28;20456;-69
2023/01/10 08:20:46;;;;;;;12.77;5.68;;;5.10;99.20;;;;;;5048105;28;20429;-69
2023/01/10 08:23:14;;;;;;;11.63;5.38;;;5.10;99.10;;;;;;5044897;28;20444;-69
2023/01/10 08:25:42;;;;;;;14.63;6.10;;;5.10;99.30;;;;;;5048507;28;20941;-70
2023/01/10 08:28:09;;;;;;;14.23;5.60;;;5.20;99.20;;;;;;5046957;28;20417;-71
2023/01/10 08:30:36;;;;;;;10.35;5.38;;;5.20;99.10;;;;;;5049056;28;20441;-69
2023/01/10 08:33:03;;;;;;;13.70;5.60;;;5.20;99.40;;;;;;5048851;28;20418;-73
2023/01/10 08:35:30;;;;;;;11.93;5.53;;;5.30;99.10;;;;;;5047873;28;20433;-71
2023/01/10 08:37:59;;;;;;;12.50;5.68;;;5.30;98.70;;;;;;5047555;28;20918;-72
2023/01/10 08:40:25;;;;;;;11.83;5.10;;;5.40;98.60;;;;;;5047724;28;20451;-70
2023/01/10 08:42:59;;;;;;;12.55;5.40;;;5.40;98.70;;;;;;5049162;28;20440;-70
2023/01/10 08:45:25;;;;;;;11.97;6.10;;;5.50;98.70;;;;;;5045317;28;21300;-69
2023/01/10 08:47:53;;;;;;;9.93;5.85;;;5.60;98.30;;;;;;5050634;28;20414;-70
2023/01/10 08:50:20;;;;;;;11.90;6.70;;;5.70;97.80;;;;;;5050656;28;20421;-69
2023/01/10 08:52:47;;;;;;;15.48;6.38;;;5.80;97.60;;;;;;5049415;28;20457;-69
2023/01/10 08:55:13;;;;;;;16.33;6.22;;;5.90;97.30;;;;;;5048545;28;20421;-72
2023/01/10 08:57:40;;;;;;;14.50;6.13;;;6.00;96.60;;;;;;5048356;28;20530;-69
2023/01/10 09:00:10;;;;;;;9.82;5.63;;;6.00;96.40;;;;;;5048083;28;20448;-68
2023/01/10 09:02:38;;;;;;;14.07;5.83;;;5.90;96.40;;;;;;5046910;28;20478;-71
2023/01/10 09:05:06;;;;;;;10.50;5.30;;;5.90;96.30;;;;;;5049949;28;20417;-69
2023/01/10 09:07:33;;;;;;;13.15;5.70;;;5.80;96.70;;;;;;5061429;28;20550;-69
2023/01/10 09:10:00;;;;;;;13.02;5.80;;;5.80;96.80;;;;;;5049027;28;20541;-71
2023/01/10 09:15:12;;;;;;;14.25;5.95;;;5.90;96.70;;;;;;5044877;28;20509;-71
2023/01/10 09:17:39;;;;;;;11.77;6.10;;;6.00;96.50;;;;;;5052807;28;20423;-69
2023/01/10 09:20:08;;;;;;;11.02;5.28;;;6.10;96.30;;;;;;5048991;28;20440;-71
2023/01/10 09:22:36;;;;;;;10.35;6.03;;;6.30;95.70;;;;;;5061122;28;20551;-71
2023/01/10 09:25:03;;;;;;;9.52;4.93;;;6.50;95.30;;;;;;5060457;28;20921;-69
2023/01/10 09:27:30;;;;;;;10.75;4.80;;;6.80;94.10;;;;;;5049509;28;20413;-70
2023/01/10 09:29:57;;;;;;;9.07;4.82;;;7.00;93.00;;;;;;5050987;28;20476;-69
2023/01/10 09:32:25;;;;;;;11.82;5.50;;;7.30;92.30;;;;;;5047814;28;21383;-69
2023/01/10 09:34:52;;;;;;;12.38;5.30;;;7.50;91.50;;;;;;5047569;28;20425;-68
2023/01/10 09:37:18;;;;;;;11.30;5.10;;;7.70;91.10;;;;;;5061532;28;20409;-69
2023/01/10 09:39:45;;;;;;;10.80;4.25;;;7.90;90.60;;;;;;5061973;28;20447;-72
2023/01/10 09:42:27;;;;;;;11.80;4.60;;;8.10;87.80;;;;;;5047534;28;20436;-69
2023/01/10 09:45:03;;;;;;;12.43;3.88;;;8.30;86.40;;;;;;5047486;28;20490;-71
2023/01/10 09:47:38;;;;;;;9.30;4.00;;;8.50;84.20;;;;;;5060927;28;20438;-70
2023/01/10 09:50:14;;;;;;;12.13;3.85;;;8.60;83.50;;;;;;5056129;28;20422;-69
2023/01/10 09:52:45;;;;;;;9.73;4.25;;;8.70;81.60;;;;;;5059922;28;20457;-69
2023/01/10 09:55:20;;;;;;;9.45;3.83;;;8.70;82.70;;;;;;5067434;28;20410;-68
2023/01/10 09:57:47;;;;;;;11.48;4.50;;;8.80;81.50;;;;;;5075958;28;20440;-68
2023/01/10 10:00:19;;;;;;;8.97;3.30;;;8.90;79.80;;;;;;5065151;28;20440;-70
2023/01/10 10:02:51;;;;;;;10.48;3.47;;;8.80;79.60;;;;;;5062309;28;20460;-69
2023/01/10 10:05:22;;;;;;;10.70;3.70;;;8.70;80.20;;;;;;5063701;28;20437;-70
2023/01/10 10:07:53;;;;;;;9.55;3.90;;;8.70;80.10;;;;;;5065098;28;20487;-72
2023/01/10 10:10:24;;;;;;;10.65;3.53;;;8.80;80.70;;;;;;5075540;28;20416;-68
2023/01/10 10:13:04;;;;;;;9.63;3.50;;;8.90;79.60;;;;;;5053225;28;20430;-69
2023/01/10 10:15:41;;;;;;;7.60;3.63;;;8.90;79.20;;;;;;5067296;28;20420;-69
2023/01/10 10:18:20;;;;;;;10.75;3.60;;;9.00;79.00;;;;;;5058899;28;20419;-69
2023/01/10 10:20:57;;;;;;;10.82;3.20;;;9.10;78.20;;;;;;5056846;28;20419;-69
2023/01/10 10:24:00;;;;;;;10.85;3.55;;;9.20;77.60;;;;;;5066390;28;20435;-70
2023/01/10 10:26:33;;;;;;;10.93;3.50;;;9.10;76.10;;;;;;5047310;28;20423;-69
2023/01/10 10:29:32;;;;;;;8.40;3.00;;;9.10;76.80;;;;;;5045590;28;20496;-69
2023/01/10 10:32:18;;;;;;;10.32;3.20;;;9.00;77.60;;;;;;5033206;28;20419;-70
2023/01/10 10:34:50;;;;;;;9.97;3.50;;;9.10;77.40;;;;;;5060933;28;20496;-68
2023/01/10 10:37:21;;;;;;;12.82;5.28;;;9.20;77.10;;;;;;5080695;28;20809;-70
2023/01/10 10:39:53;;;;;;;8.93;3.17;;;9.30;75.70;;;;;;5060438;28;20429;-68
2023/01/10 10:42:20;;;;;;;8.15;3.28;;;9.30;75.60;;;;;;5055398;28;20433;-68
2023/01/10 10:44:52;;;;;;;8.33;3.43;;;9.40;75.30;;;;;;5066344;28;20421;-69
2023/01/10 10:47:21;;;;;;;9.63;3.35;;;9.40;75.50;;;;;;5072523;28;20476;-69
2023/01/10 10:49:58;;;;;;;9.07;3.47;;;9.40;74.60;;;;;;5069806;28;20409;-69
2023/01/10 10:52:29;;;;;;;10.02;3.22;;;9.50;75.40;;;;;;5072706;28;20439;-70
2023/01/10 10:54:56;;;;;;;8.85;3.30;;;9.60;74.30;;;;;;5067541;28;20444;-68
2023/01/10 10:57:25;;;;;;;8.13;2.80;;;9.70;74.60;;;;;;5064737;28;20417;-69
2023/01/10 10:59:52;;;;;;;9.80;3.00;;;9.80;72.70;;;;;;5068707;28;20437;-68
2023/01/10 11:02:25;;;;;;;9.23;3.50;;;9.80;71.90;;;;;;5066076;28;20461;-69
2023/01/10 11:04:56;;;;;;;8.20;3.08;;;9.80;72.70;;;;;;5080394;28;20425;-71
2023/01/10 11:07:25;;;;;;;10.27;3.57;;;9.80;72.50;;;;;;5066508;28;20783;-71
2023/01/10 11:09:57;;;;;;;7.40;2.83;;;9.90;72.10;;;;;;5061459;28;20423;-71
2023/01/10 11:12:30;;;;;;;11.53;3.33;;;10.00;71.40;;;;;;5050867;28;20512;-70
2023/01/10 11:14:57;;;;;;;7.78;3.30;;;10.10;70.30;;;;;;5046893;28;20417;-69
2023/01/10 11:17:26;;;;;;;9.32;3.50;;;10.00;69.70;;;;;;5048171;28;20432;-69
2023/01/10 11:19:59;;;;;;;10.97;4.30;;;9.90;70.20;;;;;;5046507;28;20436;-70
2023/01/10 11:22:28;;;;;;;10.73;3.30;;;9.80;71.20;;;;;;5064226;28;20443;-70
2023/01/10 11:24:58;;;;;;;8.38;3.08;;;9.90;71.30;;;;;;5044846;28;20433;-71
2023/01/10 11:27:27;;;;;;;8.30;2.90;;;9.90;70.50;;;;;;5047132;28;20440;-70
2023/01/10 11:29:57;;;;;;;8.55;3.17;;;9.90;70.30;;;;;;5047973;28;20451;-68
2023/01/10 11:32:34;;;;;;;7.43;2.57;;;9.80;70.10;;;;;;5041103;28;20502;-69
2023/01/10 11:35:06;;;;;;;9.40;2.67;;;9.50;69.60;;;;;;5044472;28;20425;-69
2023/01/10 11:37:35;;;;;;;7.00;2.92;;;9.40;70.30;;;;;;5049416;28;20576;-68
2023/01/10 11:40:17;;;;;;;7.38;2.80;;;9.40;69.90;;;;;;5048845;28;20799;-69
2023/01/10 11:42:43;;;;;;;8.63;2.73;;;9.40;69.60;;;;;;5047093;28;20429;-69
2023/01/10 11:45:26;;;;;;;8.50;2.70;;;9.30;70.30;;;;;;5049163;28;20431;-69
2023/01/10 11:47:54;;;;;;;9.30;3.58;;;9.30;70.50;;;;;;5061048;28;20434;-68
2023/01/10 11:50:25;;;;;;;8.27;3.10;;;9.30;71.20;;;;;;5035804;28;20883;-68
2023/01/10 11:52:53;;;;;;;8.20;3.10;;;9.40;71.70;;;;;;5045572;28;20441;-68
2023/01/10 11:55:22;;;;;;;7.47;2.53;;;9.40;70.20;;;;;;5047754;28;20436;-68
2023/01/10 11:58:01;;;;;;;9.75;3.25;;;9.50;70.30;;;;;;5044900;28;20433;-69
2023/01/10 12:00:37;;;;;;;9.00;3.40;;;9.60;70.20;;;;;;5060015;28;20438;-68
2023/01/10 12:03:18;;;;;;;10.63;3.57;;;9.70;69.20;;;;;;5051722;28;20418;-68
2023/01/10 12:05:55;;;;;;;8.75;2.90;;;9.80;69.70;;;;;;5049455;28;20409;-66
2023/01/10 12:08:29;;;;;;;7.63;3.45;;;10.00;69.30;;;;;;5047438;28;20440;-69
2023/01/10 12:11:01;;;;;;;10.38;2.72;;;10.10;67.30;;;;;;5043950;28;20435;-68
2023/01/10 12:13:29;;;;;;;7.72;2.70;;;10.10;67.30;;;;;;5050153;28;20421;-68
2023/01/10 12:16:17;;;;;;;5.90;2.80;;;10.00;67.40;;;;;;5049069;28;20428;-68
2023/01/10 12:18:43;;;;;;;6.32;2.55;;;9.80;68.20;;;;;;5048810;28;20455;-69
2023/01/10 12:21:15;;;;;;;7.70;2.85;;;9.80;68.10;;;;;;5050563;28;20428;-68
2023/01/10 12:23:44;;;;;;;6.75;2.40;;;9.70;68.10;;;;;;5048961;28;20407;-68
2023/01/10 12:26:13;;;;;;;9.00;2.78;;;9.70;68.90;;;;;;5080361;28;20425;-67
2023/01/10 12:28:44;;;;;;;7.55;2.70;;;9.70;69.10;;;;;;5071554;28;20413;-68
2023/01/10 12:31:14;;;;;;;9.30;3.70;;;9.60;69.50;;;;;;5070447;28;20416;-71
2023/01/10 12:33:46;;;;;;;10.45;2.72;;;9.50;70.40;;;;;;5067513;28;20413;-67
2023/01/10 12:36:23;;;;;;;9.70;3.33;;;9.30;71.20;;;;;;5065474;28;20425;-68
2023/01/10 12:39:03;;;;;;;9.20;3.10;;;9.30;72.00;;;;;;5059731;28;20930;-68
2023/01/10 12:44:26;;;;;;;9.50;2.63;;;9.20;71.70;;;;;;5040556;28;20557;-69
2023/01/10 12:46:58;;;;;;;5.80;2.65;;;9.10;72.10;;;;;;5049384;28;20428;-69
2023/01/10 12:49:28;;;;;;;10.00;2.60;;;9.10;72.70;;;;;;5049700;28;20425;-69
2023/01/10 12:52:02;;;;;;;10.20;3.60;;;9.10;72.90;;;;;;5048949;28;20455;-71
2023/01/10 12:54:30;;;;;;;7.43;2.85;;;9.00;72.80;;;;;;5050184;28;20449;-68
2023/01/10 12:57:00;;;;;;;9.70;2.80;;;9.00;72.40;;;;;;5060794;28;20433;-67
2023/01/10 12:59:36;;;;;;;7.85;2.78;;;8.90;72.20;;;;;;5050635;28;20508;-68
2023/01/10 13:02:04;;;;;;;7.30;2.95;;;8.90;72.50;;;;;;5050975;28;20448;-70
2023/01/10 13:04:34;;;;;;;9.43;3.60;;;8.90;72.60;;;;;;5049136;28;21102;-68
2023/01/10 13:07:02;;;;;;;6.55;2.50;;;9.00;72.60;;;;;;5050320;28;20516;-68
2023/01/10 13:09:30;;;;;;;6.18;2.40;;;8.90;71.50;;;;;;5067122;28;20415;-68
2023/01/10 13:12:03;;;;;;;9.80;3.20;;;8.90;72.40;;;;;;5056472;28;20437;-70
2023/01/10 13:14:37;;;;;;;7.68;2.58;;;9.00;72.20;;;;;;5049919;28;20440;-69
2023/01/10 13:17:16;;;;;;;7.32;2.63;;;9.00;71.90;;;;;;5062878;28;20850;-69
2023/01/10 13:20:23;;;;;;;7.70;2.58;;;9.10;72.40;;;;;;5041808;28;22451;-68
2023/01/10 13:22:53;;;;;;;9.30;3.13;;;9.10;72.10;;;;;;5046762;28;20401;-69